sensor_id;sensor_type;location;lat;lon;timestamp;pressure;altitude;pressure_sealevel;temperature;humidity
49216;BME280;45943;53.148;8.204;2023-05-01T00:00:59;102024.72;;;15.36;60.35
49216;BME280;45943;53.148;8.204;2023-05-01T00:03:25;102022.63;;;15.39;59.93
49216;BME280;45943;53.148;8.204;2023-05-01T00:05:57;102019.31;;;15.36;60.83
49216;BME280;45943;53.148;8.204;2023-05-01T00:08:24;102006.88;;;15.33;61.04
49216;BME280;45943;53.148;8.204;2023-05-01T00:10:50;102010.22;;;15.37;60.54
49216;BME280;45943;53.148;8.204;2023-05-01T00:13:16;102001.38;;;15.35;60.64
49216;BME280;45943;53.148;8.204;2023-05-01T00:15:46;101994.16;;;15.24;61.66
49216;BME280;45943;53.148;8.204;2023-05-01T00:18:14;101991.53;;;15.23;61.45
49216;BME280;45943;53.148;8.204;2023-05-01T00:20:41;101988.75;;;15.24;62.11
49216;BME280;45943;53.148;8.204;2023-05-01T00:23:07;101985.28;;;15.22;62.28
49216;BME280;45943;53.148;8.204;2023-05-01T00:25:33;101984.94;;;15.15;62.72
49216;BME280;45943;53.148;8.204;2023-05-01T00:27:59;101982.47;;;15.12;62.95
49216;BME280;45943;53.148;8.204;2023-05-01T00:30:25;101983.34;;;15.13;63.29
49216;BME280;45943;53.148;8.204;2023-05-01T00:32:52;101985.81;;;15.16;62.91
49216;BME280;45943;53.148;8.204;2023-05-01T00:35:18;101983.56;;;15.21;62.62
49216;BME280;45943;53.148;8.204;2023-05-01T00:37:44;101976.56;;;15.18;63.09
49216;BME280;45943;53.148;8.204;2023-05-01T00:40:10;101973.50;;;15.12;63.33
49216;BME280;45943;53.148;8.204;2023-05-01T00:42:36;101966.25;;;15.12;63.26
49216;BME280;45943;53.148;8.204;2023-05-01T00:45:04;101973.38;;;15.13;63.65
49216;BME280;45943;53.148;8.204;2023-05-01T00:47:32;101968.81;;;15.14;63.21
49216;BME280;45943;53.148;8.204;2023-05-01T00:50:00;101961.25;;;15.08;63.70
49216;BME280;45943;53.148;8.204;2023-05-01T00:52:27;101968.13;;;15.01;64.55
49216;BME280;45943;53.148;8.204;2023-05-01T00:54:53;101963.09;;;14.96;65.23
49216;BME280;45943;53.148;8.204;2023-05-01T00:57:20;101951.31;;;14.97;65.11
49216;BME280;45943;53.148;8.204;2023-05-01T00:59:46;101949.97;;;14.91;65.16
49216;BME280;45943;53.148;8.204;2023-05-01T01:02:13;101954.16;;;14.96;65.49
49216;BME280;45943;53.148;8.204;2023-05-01T01:04:43;101949.09;;;14.91;65.80
49216;BME280;45943;53.148;8.204;2023-05-01T01:12:31;101943.22;;;14.97;65.54
49216;BME280;45943;53.148;8.204;2023-05-01T01:18:12;101936.28;;;15.04;64.84
49216;BME280;45943;53.148;8.204;2023-05-01T01:20:45;101930.03;;;15.04;64.75
49216;BME280;45943;53.148;8.204;2023-05-01T01:31:49;101921.22;;;14.90;65.56
49216;BME280;45943;53.148;8.204;2023-05-01T01:34:19;101919.63;;;14.88;65.66
49216;BME280;45943;53.148;8.204;2023-05-01T01:42:41;101909.34;;;14.71;68.23
49216;BME280;45943;53.148;8.204;2023-05-01T01:45:14;101900.00;;;14.63;69.04
49216;BME280;45943;53.148;8.204;2023-05-01T01:47:43;101899.03;;;14.64;68.93
49216;BME280;45943;53.148;8.204;2023-05-01T01:50:12;101889.34;;;14.62;68.87
49216;BME280;45943;53.148;8.204;2023-05-01T01:52:39;101892.28;;;14.59;69.94
49216;BME280;45943;53.148;8.204;2023-05-01T01:55:08;101892.53;;;14.67;69.29
49216;BME280;45943;53.148;8.204;2023-05-01T01:57:37;101887.72;;;14.71;69.17
49216;BME280;45943;53.148;8.204;2023-05-01T02:00:05;101881.97;;;14.75;68.62
49216;BME280;45943;53.148;8.204;2023-05-01T02:02:36;101866.25;;;14.69;68.48
49216;BME280;45943;53.148;8.204;2023-05-01T02:05:07;101875.34;;;14.68;68.96
49216;BME280;45943;53.148;8.204;2023-05-01T02:07:39;101869.19;;;14.55;70.25
49216;BME280;45943;53.148;8.204;2023-05-01T02:10:07;101867.16;;;14.47;70.45
49216;BME280;45943;53.148;8.204;2023-05-01T02:12:37;101863.19;;;14.40;71.68
49216;BME280;45943;53.148;8.204;2023-05-01T02:15:05;101859.88;;;14.37;72.63
49216;BME280;45943;53.148;8.204;2023-05-01T02:17:33;101863.56;;;14.35;72.34
49216;BME280;45943;53.148;8.204;2023-05-01T02:20:01;101856.56;;;14.33;72.21
49216;BME280;45943;53.148;8.204;2023-05-01T02:22:30;101850.69;;;14.28;73.23
49216;BME280;45943;53.148;8.204;2023-05-01T02:24:57;101851.66;;;14.27;73.69
49216;BME280;45943;53.148;8.204;2023-05-01T02:27:28;101850.91;;;14.25;73.08
49216;BME280;45943;53.148;8.204;2023-05-01T02:29:57;101855.69;;;14.21;74.22
49216;BME280;45943;53.148;8.204;2023-05-01T02:32:23;101844.66;;;14.13;73.42
49216;BME280;45943;53.148;8.204;2023-05-01T02:34:50;101843.31;;;14.07;74.36
49216;BME280;45943;53.148;8.204;2023-05-01T02:37:16;101842.22;;;14.10;75.10
49216;BME280;45943;53.148;8.204;2023-05-01T02:39:42;101836.69;;;14.12;74.32
49216;BME280;45943;53.148;8.204;2023-05-01T02:42:08;101836.69;;;14.12;74.24
49216;BME280;45943;53.148;8.204;2023-05-01T02:44:39;101833.13;;;14.11;74.34
49216;BME280;45943;53.148;8.204;2023-05-01T02:47:12;101824.91;;;14.13;75.04
49216;BME280;45943;53.148;8.204;2023-05-01T02:49:42;101827.59;;;14.13;74.29
49216;BME280;45943;53.148;8.204;2023-05-01T02:52:11;101827.00;;;14.09;74.07
49216;BME280;45943;53.148;8.204;2023-05-01T02:54:38;101823.44;;;14.09;74.96
49216;BME280;45943;53.148;8.204;2023-05-01T02:57:04;101821.59;;;14.09;74.76
49216;BME280;45943;53.148;8.204;2023-05-01T02:59:30;101822.22;;;14.01;74.18
49216;BME280;45943;53.148;8.204;2023-05-01T03:01:57;101815.09;;;13.89;75.22
49216;BME280;45943;53.148;8.204;2023-05-01T03:04:24;101813.25;;;13.90;75.76
49216;BME280;45943;53.148;8.204;2023-05-01T03:06:50;101813.84;;;13.93;74.78
49216;BME280;45943;53.148;8.204;2023-05-01T03:09:16;101815.22;;;13.99;74.42
49216;BME280;45943;53.148;8.204;2023-05-01T03:11:42;101805.75;;;14.04;73.95
49216;BME280;45943;53.148;8.204;2023-05-01T03:14:08;101801.34;;;14.03;73.58
49216;BME280;45943;53.148;8.204;2023-05-01T03:16:35;101795.97;;;13.92;72.70
49216;BME280;45943;53.148;8.204;2023-05-01T03:19:01;101791.66;;;13.78;74.38
49216;BME280;45943;53.148;8.204;2023-05-01T03:21:27;101795.34;;;13.77;74.82
49216;BME280;45943;53.148;8.204;2023-05-01T03:23:54;101785.91;;;13.72;75.49
49216;BME280;45943;53.148;8.204;2023-05-01T03:26:20;101785.16;;;13.70;75.36
49216;BME280;45943;53.148;8.204;2023-05-01T03:28:46;101775.09;;;13.72;75.22
49216;BME280;45943;53.148;8.204;2023-05-01T03:31:12;101772.41;;;13.72;74.80
49216;BME280;45943;53.148;8.204;2023-05-01T03:33:38;101771.44;;;13.73;75.18
49216;BME280;45943;53.148;8.204;2023-05-01T03:36:04;101765.78;;;13.76;74.25
49216;BME280;45943;53.148;8.204;2023-05-01T03:38:31;101762.13;;;13.77;73.97
49216;BME280;45943;53.148;8.204;2023-05-01T03:40:57;101766.03;;;13.73;73.29
49216;BME280;45943;53.148;8.204;2023-05-01T03:43:24;101750.84;;;13.72;72.68
49216;BME280;45943;53.148;8.204;2023-05-01T03:45:50;101755.38;;;13.71;73.39
49216;BME280;45943;53.148;8.204;2023-05-01T03:48:17;101743.34;;;13.64;73.82
49216;BME280;45943;53.148;8.204;2023-05-01T03:50:43;101747.03;;;13.63;73.88
49216;BME280;45943;53.148;8.204;2023-05-01T03:53:09;101743.22;;;13.66;73.61
49216;BME280;45943;53.148;8.204;2023-05-01T03:55:35;101743.22;;;13.66;73.17
49216;BME280;45943;53.148;8.204;2023-05-01T03:58:01;101739.56;;;13.67;72.32
49216;BME280;45943;53.148;8.204;2023-05-01T04:00:27;101737.84;;;13.66;71.94
49216;BME280;45943;53.148;8.204;2023-05-01T04:02:53;101739.31;;;13.81;71.21
49216;BME280;45943;53.148;8.204;2023-05-01T04:05:21;101739.31;;;13.81;70.31
49216;BME280;45943;53.148;8.204;2023-05-01T04:07:47;101744.34;;;13.74;71.00
49216;BME280;45943;53.148;8.204;2023-05-01T04:10:13;101742.38;;;13.65;72.22
49216;BME280;45943;53.148;8.204;2023-05-01T04:12:39;101741.16;;;13.58;72.46
49216;BME280;45943;53.148;8.204;2023-05-01T04:15:05;101746.91;;;13.54;72.00
49216;BME280;45943;53.148;8.204;2023-05-01T04:17:33;101744.91;;;13.44;71.70
49216;BME280;45943;53.148;8.204;2023-05-01T04:20:00;101737.28;;;13.27;73.82
49216;BME280;45943;53.148;8.204;2023-05-01T04:22:26;101743.44;;;13.29;74.31
49216;BME280;45943;53.148;8.204;2023-05-01T04:24:52;101732.16;;;13.35;74.76
49216;BME280;45943;53.148;8.204;2023-05-01T04:27:18;101729.47;;;13.46;73.80
49216;BME280;45943;53.148;8.204;2023-05-01T04:29:44;101727.53;;;13.48;73.34
49216;BME280;45943;53.148;8.204;2023-05-01T04:32:10;101735.13;;;13.55;73.26
49216;BME280;45943;53.148;8.204;2023-05-01T04:34:36;101727.91;;;13.55;73.00
49216;BME280;45943;53.148;8.204;2023-05-01T04:37:02;101728.88;;;13.54;73.02
49216;BME280;45943;53.148;8.204;2023-05-01T04:39:28;101729.75;;;13.55;72.65
49216;BME280;45943;53.148;8.204;2023-05-01T04:41:54;101724.13;;;13.58;73.86
49216;BME280;45943;53.148;8.204;2023-05-01T04:44:20;101717.25;;;13.54;73.84
49216;BME280;45943;53.148;8.204;2023-05-01T04:46:46;101723.38;;;13.56;74.11
49216;BME280;45943;53.148;8.204;2023-05-01T04:49:12;101718.97;;;13.55;73.02
49216;BME280;45943;53.148;8.204;2023-05-01T04:51:39;101718.22;;;13.53;71.22
49216;BME280;45943;53.148;8.204;2023-05-01T04:54:05;101714.56;;;13.54;71.93
49216;BME280;45943;53.148;8.204;2023-05-01T04:56:31;101711.50;;;13.58;71.03
49216;BME280;45943;53.148;8.204;2023-05-01T04:58:57;101710.53;;;13.59;69.35
49216;BME280;45943;53.148;8.204;2023-05-01T05:01:23;101707.44;;;13.53;69.82
49216;BME280;45943;53.148;8.204;2023-05-01T05:03:49;101714.53;;;13.42;69.68
49216;BME280;45943;53.148;8.204;2023-05-01T05:06:15;101711.97;;;13.41;69.49
49216;BME280;45943;53.148;8.204;2023-05-01T05:08:41;101709.66;;;13.47;69.19
49216;BME280;45943;53.148;8.204;2023-05-01T05:11:07;101700.09;;;13.43;68.50
49216;BME280;45943;53.148;8.204;2023-05-01T05:13:33;101708.56;;;13.50;68.60
49216;BME280;45943;53.148;8.204;2023-05-01T05:15:59;101709.88;;;13.44;67.96
49216;BME280;45943;53.148;8.204;2023-05-01T05:18:25;101703.63;;;13.44;67.98
49216;BME280;45943;53.148;8.204;2023-05-01T05:20:51;101705.59;;;13.42;67.27
49216;BME280;45943;53.148;8.204;2023-05-01T05:23:17;101715.16;;;13.46;67.55
49216;BME280;45943;53.148;8.204;2023-05-01T05:25:43;101715.06;;;13.47;67.64
49216;BME280;45943;53.148;8.204;2023-05-01T05:28:09;101706.84;;;13.49;67.00
49216;BME280;45943;53.148;8.204;2023-05-01T05:30:36;101705.72;;;13.63;66.72
49216;BME280;45943;53.148;8.204;2023-05-01T05:33:02;101706.97;;;13.70;66.38
49216;BME280;45943;53.148;8.204;2023-05-01T05:35:28;101699.22;;;13.65;66.46
49216;BME280;45943;53.148;8.204;2023-05-01T05:37:54;101705.00;;;13.61;65.56
49216;BME280;45943;53.148;8.204;2023-05-01T05:40:20;101697.25;;;13.34;66.79
49216;BME280;45943;53.148;8.204;2023-05-01T05:42:46;101706.22;;;13.45;66.89
49216;BME280;45943;53.148;8.204;2023-05-01T05:45:12;101701.94;;;13.54;67.52
49216;BME280;45943;53.148;8.204;2023-05-01T05:47:38;101697.16;;;13.69;66.51
49216;BME280;45943;53.148;8.204;2023-05-01T05:50:05;101695.44;;;13.79;66.41
49216;BME280;45943;53.148;8.204;2023-05-01T05:52:32;101695.81;;;13.97;66.43
49216;BME280;45943;53.148;8.204;2023-05-01T05:54:58;101692.56;;;14.14;65.75
49216;BME280;45943;53.148;8.204;2023-05-01T05:57:24;101692.69;;;14.13;64.57
49216;BME280;45943;53.148;8.204;2023-05-01T05:59:50;101692.69;;;14.13;64.14
49216;BME280;45943;53.148;8.204;2023-05-01T06:02:16;101697.22;;;14.23;64.37
49216;BME280;45943;53.148;8.204;2023-05-01T06:04:42;101697.56;;;14.30;64.16
49216;BME280;45943;53.148;8.204;2023-05-01T06:07:08;101693.19;;;14.18;63.14
49216;BME280;45943;53.148;8.204;2023-05-01T06:09:34;101689.69;;;14.38;64.08
49216;BME280;45943;53.148;8.204;2023-05-01T06:12:01;101690.31;;;14.30;64.63
49216;BME280;45943;53.148;8.204;2023-05-01T06:14:27;101691.59;;;14.26;65.05
49216;BME280;45943;53.148;8.204;2023-05-01T06:16:53;101688.84;;;14.38;65.19
49216;BME280;45943;53.148;8.204;2023-05-01T06:19:19;101685.28;;;14.48;65.10
49216;BME280;45943;53.148;8.204;2023-05-01T06:21:45;101691.81;;;14.46;63.79
49216;BME280;45943;53.148;8.204;2023-05-01T06:24:11;101683.03;;;14.53;63.55
49216;BME280;45943;53.148;8.204;2023-05-01T06:26:38;101681.28;;;14.63;63.03
49216;BME280;45943;53.148;8.204;2023-05-01T06:29:04;101677.44;;;14.77;62.82
49216;BME280;45943;53.148;8.204;2023-05-01T06:31:30;101676.66;;;14.86;61.46
49216;BME280;45943;53.148;8.204;2023-05-01T06:33:56;101672.63;;;15.02;61.42
49216;BME280;45943;53.148;8.204;2023-05-01T06:36:22;101676.66;;;15.07;60.77
49216;BME280;45943;53.148;8.204;2023-05-01T06:38:48;101669.19;;;15.20;60.79
49216;BME280;45943;53.148;8.204;2023-05-01T06:41:17;101667.66;;;15.28;60.54
49216;BME280;45943;53.148;8.204;2023-05-01T06:43:43;101661.31;;;15.38;59.99
49216;BME280;45943;53.148;8.204;2023-05-01T06:46:09;101656.91;;;15.37;58.77
49216;BME280;45943;53.148;8.204;2023-05-01T06:48:35;101657.28;;;15.54;59.42
49216;BME280;45943;53.148;8.204;2023-05-01T06:51:01;101647.81;;;15.69;59.01
49216;BME280;45943;53.148;8.204;2023-05-01T06:53:27;101640.69;;;15.68;57.93
49216;BME280;45943;53.148;8.204;2023-05-01T06:55:53;101640.72;;;15.77;58.04
49216;BME280;45943;53.148;8.204;2023-05-01T06:58:19;101642.59;;;15.87;57.64
49216;BME280;45943;53.148;8.204;2023-05-01T07:00:45;101636.75;;;15.91;57.11
49216;BME280;45943;53.148;8.204;2023-05-01T07:03:11;101636.09;;;16.09;56.67
49216;BME280;45943;53.148;8.204;2023-05-01T07:05:37;101640.50;;;16.10;55.96
49216;BME280;45943;53.148;8.204;2023-05-01T07:08:05;101637.81;;;16.19;55.11
49216;BME280;45943;53.148;8.204;2023-05-01T07:10:31;101642.53;;;16.37;54.28
49216;BME280;45943;53.148;8.204;2023-05-01T07:12:58;101628.72;;;16.40;51.75
49216;BME280;45943;53.148;8.204;2023-05-01T07:15:24;101627.88;;;16.49;52.89
49216;BME280;45943;53.148;8.204;2023-05-01T07:17:50;101621.31;;;16.71;53.14
49216;BME280;45943;53.148;8.204;2023-05-01T07:20:17;101621.19;;;16.82;52.37
49216;BME280;45943;53.148;8.204;2023-05-01T07:22:43;101621.59;;;16.87;51.54
49216;BME280;45943;53.148;8.204;2023-05-01T07:25:08;101621.91;;;16.84;51.22
49216;BME280;45943;53.148;8.204;2023-05-01T07:27:34;101615.88;;;16.90;51.94
49216;BME280;45943;53.148;8.204;2023-05-01T07:30:01;101619.53;;;17.08;51.35
49216;BME280;45943;53.148;8.204;2023-05-01T07:32:29;101612.50;;;17.25;50.58
49216;BME280;45943;53.148;8.204;2023-05-01T07:34:55;101618.75;;;17.35;49.82
49216;BME280;45943;53.148;8.204;2023-05-01T07:37:23;101619.56;;;17.45;50.24
49216;BME280;45943;53.148;8.204;2023-05-01T07:39:51;101617.34;;;17.59;48.37
49216;BME280;45943;53.148;8.204;2023-05-01T07:42:17;101616.97;;;17.54;49.16
49216;BME280;45943;53.148;8.204;2023-05-01T07:44:43;101615.50;;;17.59;49.12
49216;BME280;45943;53.148;8.204;2023-05-01T07:47:09;101613.75;;;17.68;49.34
49216;BME280;45943;53.148;8.204;2023-05-01T07:49:35;101608.09;;;17.61;47.94
49216;BME280;45943;53.148;8.204;2023-05-01T07:52:03;101604.50;;;17.70;48.02
49216;BME280;45943;53.148;8.204;2023-05-01T07:54:32;101595.34;;;17.71;47.82
49216;BME280;45943;53.148;8.204;2023-05-01T07:56:58;101599.94;;;17.89;47.11
49216;BME280;45943;53.148;8.204;2023-05-01T07:59:24;101592.34;;;17.92;46.60
49216;BME280;45943;53.148;8.204;2023-05-01T08:01:50;101595.28;;;17.99;47.03
49216;BME280;45943;53.148;8.204;2023-05-01T08:04:16;101595.53;;;18.05;46.57
49216;BME280;45943;53.148;8.204;2023-05-01T08:06:43;101599.88;;;18.16;46.71
49216;BME280;45943;53.148;8.204;2023-05-01T08:09:09;101598.59;;;18.20;47.00
49216;BME280;45943;53.148;8.204;2023-05-01T08:11:35;101586.25;;;18.26;46.67
49216;BME280;45943;53.148;8.204;2023-05-01T08:14:01;101588.63;;;18.47;44.79
49216;BME280;45943;53.148;8.204;2023-05-01T08:16:28;101589.28;;;18.41;44.62
49216;BME280;45943;53.148;8.204;2023-05-01T08:18:54;101583.69;;;18.42;44.44
49216;BME280;45943;53.148;8.204;2023-05-01T08:21:20;101586.66;;;18.31;44.73
49216;BME280;45943;53.148;8.204;2023-05-01T08:23:46;101584.53;;;18.43;46.13
49216;BME280;45943;53.148;8.204;2023-05-01T08:26:12;101584.97;;;18.56;45.40
49216;BME280;45943;53.148;8.204;2023-05-01T08:28:38;101585.22;;;18.62;46.02
49216;BME280;45943;53.148;8.204;2023-05-01T08:31:05;101586.53;;;18.76;46.38
49216;BME280;45943;53.148;8.204;2023-05-01T08:33:31;101577.63;;;18.92;45.84
49216;BME280;45943;53.148;8.204;2023-05-01T08:35:57;101573.09;;;19.01;45.44
49216;BME280;45943;53.148;8.204;2023-05-01T08:38:23;101581.44;;;18.99;45.10
49216;BME280;45943;53.148;8.204;2023-05-01T08:40:52;101575.03;;;19.08;45.68
49216;BME280;45943;53.148;8.204;2023-05-01T08:43:19;101575.78;;;19.18;44.07
49216;BME280;45943;53.148;8.204;2023-05-01T08:45:46;101569.88;;;19.31;45.07
49216;BME280;45943;53.148;8.204;2023-05-01T08:48:12;101572.59;;;19.31;43.71
49216;BME280;45943;53.148;8.204;2023-05-01T08:50:44;101574.69;;;19.37;42.09
49216;BME280;45943;53.148;8.204;2023-05-01T08:53:12;101577.28;;;19.55;42.62
49216;BME280;45943;53.148;8.204;2023-05-01T08:55:41;101570.56;;;19.67;42.97
49216;BME280;45943;53.148;8.204;2023-05-01T08:58:09;101567.69;;;19.69;42.99
49216;BME280;45943;53.148;8.204;2023-05-01T09:00:38;101557.47;;;19.71;42.77
49216;BME280;45943;53.148;8.204;2023-05-01T09:03:04;101558.53;;;19.86;42.83
49216;BME280;45943;53.148;8.204;2023-05-01T09:05:33;101550.03;;;19.89;43.81
49216;BME280;45943;53.148;8.204;2023-05-01T09:07:59;101554.13;;;20.01;41.82
49216;BME280;45943;53.148;8.204;2023-05-01T09:10:25;101553.81;;;20.21;42.67
49216;BME280;45943;53.148;8.204;2023-05-01T09:12:54;101557.59;;;20.28;41.44
49216;BME280;45943;53.148;8.204;2023-05-01T09:15:23;101549.75;;;20.17;41.95
49216;BME280;45943;53.148;8.204;2023-05-01T09:17:50;101548.19;;;20.14;42.74
49216;BME280;45943;53.148;8.204;2023-05-01T09:20:17;101546.31;;;20.23;41.71
49216;BME280;45943;53.148;8.204;2023-05-01T09:22:44;101544.28;;;20.33;41.90
49216;BME280;45943;53.148;8.204;2023-05-01T09:25:10;101544.81;;;20.45;41.73
49216;BME280;45943;53.148;8.204;2023-05-01T09:27:36;101543.25;;;20.34;42.83
49216;BME280;45943;53.148;8.204;2023-05-01T09:30:03;101535.63;;;20.38;43.06
49216;BME280;45943;53.148;8.204;2023-05-01T09:32:31;101535.63;;;20.38;42.61
49216;BME280;45943;53.148;8.204;2023-05-01T09:37:36;101525.72;;;20.77;41.85
49216;BME280;45943;53.148;8.204;2023-05-01T09:42:31;101522.06;;;21.01;41.68
49216;BME280;45943;53.148;8.204;2023-05-01T09:44:59;101512.75;;;20.87;40.50
49216;BME280;45943;53.148;8.204;2023-05-01T09:47:29;101510.84;;;21.04;42.05
49216;BME280;45943;53.148;8.204;2023-05-01T09:49:56;101520.16;;;21.26;41.62
49216;BME280;45943;53.148;8.204;2023-05-01T09:52:24;101511.84;;;21.51;41.69
49216;BME280;45943;53.148;8.204;2023-05-01T09:57:36;101512.59;;;21.67;40.35
49216;BME280;45943;53.148;8.204;2023-05-01T10:00:03;101514.91;;;21.79;41.06
49216;BME280;45943;53.148;8.204;2023-05-01T10:02:33;101505.88;;;22.01;40.67
49216;BME280;45943;53.148;8.204;2023-05-01T10:04:59;101502.28;;;22.00;40.64
49216;BME280;45943;53.148;8.204;2023-05-01T10:07:26;101499.28;;;22.18;40.48
49216;BME280;45943;53.148;8.204;2023-05-01T10:09:53;101506.69;;;22.32;40.86
49216;BME280;45943;53.148;8.204;2023-05-01T10:12:26;101509.72;;;22.38;39.72
49216;BME280;45943;53.148;8.204;2023-05-01T10:14:54;101495.25;;;22.29;39.74
49216;BME280;45943;53.148;8.204;2023-05-01T10:17:22;101507.09;;;21.98;39.88
49216;BME280;45943;53.148;8.204;2023-05-01T10:19:48;101503.63;;;21.82;39.53
49216;BME280;45943;53.148;8.204;2023-05-01T10:22:15;101507.22;;;22.13;39.84
49216;BME280;45943;53.148;8.204;2023-05-01T10:24:42;101495.94;;;22.31;39.57
49216;BME280;45943;53.148;8.204;2023-05-01T10:27:11;101503.66;;;22.27;39.29
49216;BME280;45943;53.148;8.204;2023-05-01T10:29:39;101499.44;;;22.40;39.95
49216;BME280;45943;53.148;8.204;2023-05-01T10:32:06;101493.09;;;22.62;39.25
49216;BME280;45943;53.148;8.204;2023-05-01T10:34:34;101483.63;;;22.50;38.32
49216;BME280;45943;53.148;8.204;2023-05-01T10:37:07;101491.09;;;22.56;38.03
49216;BME280;45943;53.148;8.204;2023-05-01T10:39:37;101493.56;;;22.28;38.27
49216;BME280;45943;53.148;8.204;2023-05-01T10:42:04;101493.31;;;22.38;38.79
49216;BME280;45943;53.148;8.204;2023-05-01T10:44:33;101487.31;;;22.57;39.00
49216;BME280;45943;53.148;8.204;2023-05-01T10:50:02;101478.09;;;22.73;38.20
49216;BME280;45943;53.148;8.204;2023-05-01T10:55:36;101476.63;;;23.14;37.84
49216;BME280;45943;53.148;8.204;2023-05-01T10:58:04;101473.03;;;23.14;38.15
49216;BME280;45943;53.148;8.204;2023-05-01T11:00:30;101474.56;;;23.38;38.45
49216;BME280;45943;53.148;8.204;2023-05-01T11:03:32;101467.94;;;23.47;37.89
49216;BME280;45943;53.148;8.204;2023-05-01T11:19:04;101446.66;;;24.07;36.77
49216;BME280;45943;53.148;8.204;2023-05-01T11:21:35;101450.66;;;24.04;36.51
49216;BME280;45943;53.148;8.204;2023-05-01T11:24:05;101445.69;;;24.14;36.18
49216;BME280;45943;53.148;8.204;2023-05-01T11:26:36;101447.78;;;24.12;36.28
49216;BME280;45943;53.148;8.204;2023-05-01T11:29:07;101441.34;;;24.26;37.36
49216;BME280;45943;53.148;8.204;2023-05-01T11:31:35;101439.75;;;24.60;37.34
49216;BME280;45943;53.148;8.204;2023-05-01T11:34:02;101440.25;;;24.77;36.43
49216;BME280;45943;53.148;8.204;2023-05-01T11:36:29;101438.72;;;24.68;35.66
49216;BME280;45943;53.148;8.204;2023-05-01T11:39:13;101438.06;;;24.66;36.68
49216;BME280;45943;53.148;8.204;2023-05-01T11:41:40;101428.44;;;24.76;37.07
49216;BME280;45943;53.148;8.204;2023-05-01T11:44:06;101435.56;;;25.05;36.75
49216;BME280;45943;53.148;8.204;2023-05-01T11:46:32;101432.31;;;24.88;36.81
49216;BME280;45943;53.148;8.204;2023-05-01T11:48:59;101422.09;;;25.10;37.06
49216;BME280;45943;53.148;8.204;2023-05-01T11:51:26;101417.41;;;25.59;37.05
49216;BME280;45943;53.148;8.204;2023-05-01T11:54:05;101424.41;;;25.74;35.66
49216;BME280;45943;53.148;8.204;2023-05-01T11:56:37;101414.69;;;25.85;35.58
49216;BME280;45943;53.148;8.204;2023-05-01T11:59:09;101415.56;;;26.12;35.32
49216;BME280;45943;53.148;8.204;2023-05-01T12:01:45;101418.72;;;26.29;34.85
49216;BME280;45943;53.148;8.204;2023-05-01T12:04:12;101420.19;;;25.72;34.65
49216;BME280;45943;53.148;8.204;2023-05-01T12:06:47;101413.06;;;25.23;35.21
49216;BME280;45943;53.148;8.204;2023-05-01T12:11:43;101408.34;;;25.71;35.98
49216;BME280;45943;53.148;8.204;2023-05-01T12:14:10;101405.53;;;25.52;35.46
49216;BME280;45943;53.148;8.204;2023-05-01T12:16:38;101398.56;;;25.62;36.03
49216;BME280;45943;53.148;8.204;2023-05-01T12:19:05;101409.13;;;25.52;36.39
49216;BME280;45943;53.148;8.204;2023-05-01T12:21:32;101406.75;;;25.36;35.08
49216;BME280;45943;53.148;8.204;2023-05-01T12:24:08;101397.94;;;25.60;36.04
49216;BME280;45943;53.148;8.204;2023-05-01T12:26:34;101392.31;;;25.88;36.31
49216;BME280;45943;53.148;8.204;2023-05-01T12:29:02;101393.78;;;25.78;35.80
49216;BME280;45943;53.148;8.204;2023-05-01T12:31:30;101390.59;;;26.00;36.03
49216;BME280;45943;53.148;8.204;2023-05-01T12:36:30;101405.72;;;25.43;35.84
49216;BME280;45943;53.148;8.204;2023-05-01T12:39:05;101398.28;;;25.17;36.92
49216;BME280;45943;53.148;8.204;2023-05-01T12:41:41;101403.56;;;24.84;37.10
49216;BME280;45943;53.148;8.204;2023-05-01T12:47:09;101395.19;;;24.58;37.93
49216;BME280;45943;53.148;8.204;2023-05-01T12:49:34;101385.25;;;24.92;37.48
49216;BME280;45943;53.148;8.204;2023-05-01T12:52:02;101386.59;;;24.68;37.02
49216;BME280;45943;53.148;8.204;2023-05-01T12:54:31;101384.03;;;24.59;37.44
49216;BME280;45943;53.148;8.204;2023-05-01T12:59:45;101384.53;;;25.17;37.91
49216;BME280;45943;53.148;8.204;2023-05-01T13:02:13;101382.69;;;25.38;38.03
49216;BME280;45943;53.148;8.204;2023-05-01T13:04:45;101386.50;;;25.37;37.36
49216;BME280;45943;53.148;8.204;2023-05-01T13:07:15;101378.53;;;25.01;37.89
49216;BME280;45943;53.148;8.204;2023-05-01T13:09:55;101381.03;;;24.89;38.27
49216;BME280;45943;53.148;8.204;2023-05-01T13:12:23;101381.19;;;24.81;39.20
49216;BME280;45943;53.148;8.204;2023-05-01T13:14:49;101382.06;;;24.88;39.52
49216;BME280;45943;53.148;8.204;2023-05-01T13:17:22;101375.28;;;24.84;38.57
49216;BME280;45943;53.148;8.204;2023-05-01T13:19:56;101367.47;;;24.81;38.80
49216;BME280;45943;53.148;8.204;2023-05-01T13:22:35;101372.50;;;24.71;39.98
49216;BME280;45943;53.148;8.204;2023-05-01T13:25:16;101381.41;;;24.79;38.68
49216;BME280;45943;53.148;8.204;2023-05-01T13:27:48;101374.97;;;24.66;39.15
49216;BME280;45943;53.148;8.204;2023-05-01T13:30:17;101380.19;;;24.54;40.09
49216;BME280;45943;53.148;8.204;2023-05-01T13:32:47;101379.66;;;24.37;40.07
49216;BME280;45943;53.148;8.204;2023-05-01T13:35:23;101383.56;;;24.28;39.78
49216;BME280;45943;53.148;8.204;2023-05-01T13:37:51;101377.22;;;24.21;40.21
49216;BME280;45943;53.148;8.204;2023-05-01T13:40:18;101372.97;;;24.18;40.09
49216;BME280;45943;53.148;8.204;2023-05-01T13:42:44;101371.47;;;24.16;40.63
49216;BME280;45943;53.148;8.204;2023-05-01T13:45:11;101377.59;;;24.18;40.36
49216;BME280;45943;53.148;8.204;2023-05-01T13:47:40;101377.09;;;24.08;40.47
49216;BME280;45943;53.148;8.204;2023-05-01T13:50:08;101368.84;;;24.01;40.75
49216;BME280;45943;53.148;8.204;2023-05-01T13:52:41;101373.16;;;24.17;41.26